sensor_id;sensor_type;location;lat;lon;timestamp;pressure;altitude;pressure_sealevel;temperature;humidity
8398;BME280;4236;54.504;9.588;2022-11-15T00:00:59;101146.97;;;5.66;100.00
8398;BME280;4236;54.504;9.588;2022-11-15T00:03:27;101140.03;;;5.65;100.00
8398;BME280;4236;54.504;9.588;2022-11-15T00:06:01;101131.09;;;5.66;100.00
8398;BME280;4236;54.504;9.588;2022-11-15T00:08:29;101126.66;;;5.67;100.00
8398;BME280;4236;54.504;9.588;2022-11-15T00:10:59;101130.44;;;5.64;100.00
8398;BME280;4236;54.504;9.588;2022-11-15T00:13:28;101136.53;;;5.65;100.00
8398;BME280;4236;54.504;9.588;2022-11-15T00:15:57;101132.91;;;5.66;100.00
8398;BME280;4236;54.504;9.588;2022-11-15T00:18:25;101131.25;;;5.65;100.00
8398;BME280;4236;54.504;9.588;2022-11-15T00:20:53;101136.84;;;5.62;100.00
8398;BME280;4236;54.504;9.588;2022-11-15T00:23:20;101133.53;;;5.59;100.00
8398;BME280;4236;54.504;9.588;2022-11-15T00:25:55;101132.34;;;5.54;100.00
8398;BME280;4236;54.504;9.588;2022-11-15T00:28:24;101120.09;;;5.53;100.00
8398;BME280;4236;54.504;9.588;2022-11-15T00:30:52;101122.91;;;5.51;100.00
8398;BME280;4236;54.504;9.588;2022-11-15T00:33:20;101118.06;;;5.47;100.00
8398;BME280;4236;54.504;9.588;2022-11-15T00:35:47;101123.22;;;5.48;100.00
8398;BME280;4236;54.504;9.588;2022-11-15T00:38:15;101110.31;;;5.45;100.00
8398;BME280;4236;54.504;9.588;2022-11-15T00:40:42;101117.41;;;5.45;100.00
8398;BME280;4236;54.504;9.588;2022-11-15T00:43:10;101108.78;;;5.43;100.00
8398;BME280;4236;54.504;9.588;2022-11-15T00:45:39;101107.97;;;5.42;100.00
8398;BME280;4236;54.504;9.588;2022-11-15T00:48:07;101109.09;;;5.40;100.00
8398;BME280;4236;54.504;9.588;2022-11-15T00:50:34;101115.38;;;5.39;100.00
8398;BME280;4236;54.504;9.588;2022-11-15T00:53:02;101114.00;;;5.35;100.00
8398;BME280;4236;54.504;9.588;2022-11-15T00:55:29;101106.25;;;5.33;100.00
8398;BME280;4236;54.504;9.588;2022-11-15T00:57:57;101111.34;;;5.35;100.00
8398;BME280;4236;54.504;9.588;2022-11-15T01:00:24;101113.03;;;5.36;100.00
8398;BME280;4236;54.504;9.588;2022-11-15T01:02:53;101114.00;;;5.35;100.00
8398;BME280;4236;54.504;9.588;2022-11-15T01:05:21;101114.47;;;5.30;100.00
8398;BME280;4236;54.504;9.588;2022-11-15T01:07:51;101114.47;;;5.30;100.00
8398;BME280;4236;54.504;9.588;2022-11-15T01:10:18;101111.84;;;5.30;100.00
8398;BME280;4236;54.504;9.588;2022-11-15T01:12:46;101104.75;;;5.31;100.00
8398;BME280;4236;54.504;9.588;2022-11-15T01:15:14;101102.09;;;5.31;100.00
8398;BME280;4236;54.504;9.588;2022-11-15T01:17:42;101093.31;;;5.30;100.00
8398;BME280;4236;54.504;9.588;2022-11-15T01:20:11;101105.72;;;5.30;100.00
8398;BME280;4236;54.504;9.588;2022-11-15T01:22:39;101098.75;;;5.29;100.00
8398;BME280;4236;54.504;9.588;2022-11-15T01:25:06;101101.56;;;5.27;100.00
8398;BME280;4236;54.504;9.588;2022-11-15T01:27:34;101096.59;;;5.24;100.00
8398;BME280;4236;54.504;9.588;2022-11-15T01:30:02;101091.44;;;5.23;100.00
8398;BME280;4236;54.504;9.588;2022-11-15T01:32:30;101091.44;;;5.23;100.00
8398;BME280;4236;54.504;9.588;2022-11-15T01:34:57;101090.47;;;5.24;100.00
8398;BME280;4236;54.504;9.588;2022-11-15T01:37:26;101079.56;;;5.27;100.00
8398;BME280;4236;54.504;9.588;2022-11-15T01:39:54;101082.44;;;5.33;100.00
8398;BME280;4236;54.504;9.588;2022-11-15T01:42:21;101069.56;;;5.38;100.00
8398;BME280;4236;54.504;9.588;2022-11-15T01:44:50;101073.72;;;5.41;100.00
8398;BME280;4236;54.504;9.588;2022-11-15T01:47:20;101065.47;;;5.44;100.00
8398;BME280;4236;54.504;9.588;2022-11-15T01:49:53;101061.84;;;5.45;100.00
8398;BME280;4236;54.504;9.588;2022-11-15T01:52:25;101056.56;;;5.45;100.00
8398;BME280;4236;54.504;9.588;2022-11-15T01:55:00;101057.53;;;5.44;100.00
8398;BME280;4236;54.504;9.588;2022-11-15T01:57:29;101056.22;;;5.40;100.00
8398;BME280;4236;54.504;9.588;2022-11-15T01:59:57;101053.72;;;5.38;100.00
8398;BME280;4236;54.504;9.588;2022-11-15T02:02:27;101051.53;;;5.34;100.00
8398;BME280;4236;54.504;9.588;2022-11-15T02:04:55;101046.56;;;5.31;100.00
8398;BME280;4236;54.504;9.588;2022-11-15T02:07:23;101046.03;;;5.27;100.00
8398;BME280;4236;54.504;9.588;2022-11-15T02:09:51;101049.00;;;5.24;100.00
8398;BME280;4236;54.504;9.588;2022-11-15T02:12:20;101052.59;;;5.23;100.00
8398;BME280;4236;54.504;9.588;2022-11-15T02:14:51;101051.63;;;5.24;100.00
8398;BME280;4236;54.504;9.588;2022-11-15T02:17:41;101049.31;;;5.21;100.00
8398;BME280;4236;54.504;9.588;2022-11-15T02:20:37;101043.53;;;5.26;100.00
8398;BME280;4236;54.504;9.588;2022-11-15T02:23:22;101044.59;;;5.33;100.00
8398;BME280;4236;54.504;9.588;2022-11-15T02:26:24;101049.91;;;5.41;100.00
8398;BME280;4236;54.504;9.588;2022-11-15T02:29:03;101048.31;;;5.48;100.00
8398;BME280;4236;54.504;9.588;2022-11-15T02:31:40;101042.56;;;5.52;100.00
8398;BME280;4236;54.504;9.588;2022-11-15T02:34:17;101045.56;;;5.57;100.00
8398;BME280;4236;54.504;9.588;2022-11-15T02:36:56;101045.91;;;5.63;100.00
8398;BME280;4236;54.504;9.588;2022-11-15T02:39:34;101052.41;;;5.68;100.00
8398;BME280;4236;54.504;9.588;2022-11-15T02:42:07;101049.28;;;5.73;100.00
8398;BME280;4236;54.504;9.588;2022-11-15T02:44:56;101041.88;;;5.76;100.00
8398;BME280;4236;54.504;9.588;2022-11-15T02:47:27;101044.03;;;5.81;100.00
8398;BME280;4236;54.504;9.588;2022-11-15T02:49:59;101045.53;;;5.83;100.00
8398;BME280;4236;54.504;9.588;2022-11-15T02:52:28;101052.22;;;5.87;100.00
8398;BME280;4236;54.504;9.588;2022-11-15T02:54:57;101040.63;;;5.88;100.00
8398;BME280;4236;54.504;9.588;2022-11-15T02:57:31;101033.50;;;5.89;100.00
8398;BME280;4236;54.504;9.588;2022-11-15T03:00:05;101029.50;;;5.85;100.00
8398;BME280;4236;54.504;9.588;2022-11-15T03:03:02;101023.69;;;5.81;100.00
8398;BME280;4236;54.504;9.588;2022-11-15T03:05:35;101028.63;;;5.76;100.00
8398;BME280;4236;54.504;9.588;2022-11-15T03:08:08;101023.81;;;5.72;100.00
8398;BME280;4236;54.504;9.588;2022-11-15T03:10:42;101012.88;;;5.67;100.00
8398;BME280;4236;54.504;9.588;2022-11-15T03:13:21;100999.97;;;5.64;100.00
8398;BME280;4236;54.504;9.588;2022-11-15T03:15:57;101005.72;;;5.59;100.00
8398;BME280;4236;54.504;9.588;2022-11-15T03:18:33;101006.03;;;5.56;100.00
8398;BME280;4236;54.504;9.588;2022-11-15T03:21:05;101000.25;;;5.52;100.00
8398;BME280;4236;54.504;9.588;2022-11-15T03:23:34;101002.06;;;5.52;100.00
8398;BME280;4236;54.504;9.588;2022-11-15T03:26:06;100991.78;;;5.49;100.00
8398;BME280;4236;54.504;9.588;2022-11-15T03:28:37;100984.19;;;5.46;100.00
8398;BME280;4236;54.504;9.588;2022-11-15T03:31:08;100978.50;;;5.41;100.00
8398;BME280;4236;54.504;9.588;2022-11-15T03:33:55;100972.03;;;5.35;100.00
8398;BME280;4236;54.504;9.588;2022-11-15T03:36:25;100969.72;;;5.32;100.00
8398;BME280;4236;54.504;9.588;2022-11-15T03:38:55;100977.13;;;5.29;100.00
8398;BME280;4236;54.504;9.588;2022-11-15T03:41:28;100965.22;;;5.25;100.00
8398;BME280;4236;54.504;9.588;2022-11-15T03:44:04;100969.16;;;5.21;100.00
8398;BME280;4236;54.504;9.588;2022-11-15T03:46:41;100959.53;;;5.20;100.00
8398;BME280;4236;54.504;9.588;2022-11-15T03:49:17;100975.06;;;5.15;100.00
8398;BME280;4236;54.504;9.588;2022-11-15T03:51:47;100977.34;;;5.10;100.00
8398;BME280;4236;54.504;9.588;2022-11-15T03:54:15;100963.47;;;5.08;100.00
8398;BME280;4236;54.504;9.588;2022-11-15T03:56:42;100968.91;;;5.06;100.00
8398;BME280;4236;54.504;9.588;2022-11-15T03:59:10;100971.84;;;5.03;100.00
8398;BME280;4236;54.504;9.588;2022-11-15T04:01:37;100967.72;;;5.00;100.00
8398;BME280;4236;54.504;9.588;2022-11-15T04:04:05;100968.84;;;4.98;100.00
8398;BME280;4236;54.504;9.588;2022-11-15T04:06:34;100970.00;;;4.95;100.00
8398;BME280;4236;54.504;9.588;2022-11-15T04:09:02;100975.59;;;4.92;100.00
8398;BME280;4236;54.504;9.588;2022-11-15T04:11:29;100979.19;;;4.91;100.00
8398;BME280;4236;54.504;9.588;2022-11-15T04:13:57;100992.88;;;4.87;100.00
8398;BME280;4236;54.504;9.588;2022-11-15T04:16:24;100991.34;;;4.84;100.00
8398;BME280;4236;54.504;9.588;2022-11-15T04:18:52;100992.66;;;4.80;100.00
8398;BME280;4236;54.504;9.588;2022-11-15T04:21:35;100997.25;;;4.78;100.00
8398;BME280;4236;54.504;9.588;2022-11-15T04:24:22;101001.22;;;4.74;100.00
8398;BME280;4236;54.504;9.588;2022-11-15T04:26:49;100997.88;;;4.72;100.00
8398;BME280;4236;54.504;9.588;2022-11-15T04:29:18;100996.53;;;4.68;100.00
8398;BME280;4236;54.504;9.588;2022-11-15T04:32:04;100991.38;;;4.67;100.00
8398;BME280;4236;54.504;9.588;2022-11-15T04:34:32;100991.56;;;4.65;100.00
8398;BME280;4236;54.504;9.588;2022-11-15T04:37:01;100996.44;;;4.60;100.00
8398;BME280;4236;54.504;9.588;2022-11-15T04:39:43;100991.63;;;4.56;100.00
8398;BME280;4236;54.504;9.588;2022-11-15T04:42:10;100999.03;;;4.52;100.00
8398;BME280;4236;54.504;9.588;2022-11-15T04:44:38;100996.84;;;4.47;100.00
8398;BME280;4236;54.504;9.588;2022-11-15T04:47:05;100994.19;;;4.47;100.00
8398;BME280;4236;54.504;9.588;2022-11-15T04:49:33;100990.88;;;4.45;100.00
8398;BME280;4236;54.504;9.588;2022-11-15T04:52:02;100999.09;;;4.42;100.00
8398;BME280;4236;54.504;9.588;2022-11-15T04:54:30;100999.25;;;4.41;100.00
8398;BME280;4236;54.504;9.588;2022-11-15T04:56:57;100994.28;;;4.38;100.00
8398;BME280;4236;54.504;9.588;2022-11-15T04:59:25;100993.44;;;4.37;100.00
8398;BME280;4236;54.504;9.588;2022-11-15T05:01:53;101007.91;;;4.33;100.00
8398;BME280;4236;54.504;9.588;2022-11-15T05:04:20;101010.72;;;4.32;100.00
8398;BME280;4236;54.504;9.588;2022-11-15T05:06:48;101014.31;;;4.31;100.00
8398;BME280;4236;54.504;9.588;2022-11-15T05:09:18;101012.38;;;4.33;100.00
8398;BME280;4236;54.504;9.588;2022-11-15T05:11:45;101014.19;;;4.32;100.00
8398;BME280;4236;54.504;9.588;2022-11-15T05:14:14;101024.59;;;4.34;100.00
8398;BME280;4236;54.504;9.588;2022-11-15T05:16:42;101011.25;;;4.35;100.00
8398;BME280;4236;54.504;9.588;2022-11-15T05:19:10;101012.75;;;4.38;100.00
8398;BME280;4236;54.504;9.588;2022-11-15T05:21:38;100999.56;;;4.38;100.00
8398;BME280;4236;54.504;9.588;2022-11-15T05:24:06;101002.19;;;4.38;100.00
8398;BME280;4236;54.504;9.588;2022-11-15T05:26:35;101002.19;;;4.38;100.00
8398;BME280;4236;54.504;9.588;2022-11-15T05:29:03;101000.53;;;4.37;100.00
8398;BME280;4236;54.504;9.588;2022-11-15T05:31:30;101008.59;;;4.35;100.00
8398;BME280;4236;54.504;9.588;2022-11-15T05:34:00;101013.19;;;4.33;100.00
8398;BME280;4236;54.504;9.588;2022-11-15T05:36:31;101013.34;;;4.32;100.00
8398;BME280;4236;54.504;9.588;2022-11-15T05:39:03;101012.69;;;4.30;100.00
8398;BME280;4236;54.504;9.588;2022-11-15T05:41:33;101018.09;;;4.28;100.00
8398;BME280;4236;54.504;9.588;2022-11-15T05:44:05;101009.34;;;4.28;100.00
8398;BME280;4236;54.504;9.588;2022-11-15T05:46:35;101021.88;;;4.26;100.00
8398;BME280;4236;54.504;9.588;2022-11-15T05:49:05;101015.75;;;4.25;100.00
8398;BME280;4236;54.504;9.588;2022-11-15T05:51:34;100984.25;;;4.24;100.00
8398;BME280;4236;54.504;9.588;2022-11-15T05:54:02;100992.66;;;4.27;100.00
8398;BME280;4236;54.504;9.588;2022-11-15T05:56:30;101000.59;;;4.27;100.00
8398;BME280;4236;54.504;9.588;2022-11-15T05:58:58;101001.13;;;4.31;100.00
8398;BME280;4236;54.504;9.588;2022-11-15T06:01:27;101010.72;;;4.32;100.00
8398;BME280;4236;54.504;9.588;2022-11-15T06:03:55;101020.31;;;4.33;100.00
8398;BME280;4236;54.504;9.588;2022-11-15T06:06:22;101016.81;;;4.32;100.00
8398;BME280;4236;54.504;9.588;2022-11-15T06:08:50;101031.38;;;4.36;100.00
8398;BME280;4236;54.504;9.588;2022-11-15T06:11:17;101023.00;;;4.41;100.00
8398;BME280;4236;54.504;9.588;2022-11-15T06:13:45;101023.91;;;4.50;100.00
8398;BME280;4236;54.504;9.588;2022-11-15T06:16:13;101024.81;;;4.58;100.00
8398;BME280;4236;54.504;9.588;2022-11-15T06:18:42;101017.81;;;4.67;100.00
8398;BME280;4236;54.504;9.588;2022-11-15T06:21:09;101014.13;;;4.77;100.00
8398;BME280;4236;54.504;9.588;2022-11-15T06:23:37;101018.47;;;4.86;100.00
8398;BME280;4236;54.504;9.588;2022-11-15T06:26:04;101019.38;;;4.95;100.00
8398;BME280;4236;54.504;9.588;2022-11-15T06:28:32;101020.41;;;5.02;100.00
8398;BME280;4236;54.504;9.588;2022-11-15T06:31:03;101023.97;;;5.11;100.00
8398;BME280;4236;54.504;9.588;2022-11-15T06:33:31;101015.41;;;5.17;100.00
8398;BME280;4236;54.504;9.588;2022-11-15T06:36:01;101016.44;;;5.24;100.00
8398;BME280;4236;54.504;9.588;2022-11-15T06:38:29;101013.69;;;5.33;100.00
8398;BME280;4236;54.504;9.588;2022-11-15T06:41:01;101010.25;;;5.41;100.00
8398;BME280;4236;54.504;9.588;2022-11-15T06:43:29;101016.25;;;5.51;100.00
8398;BME280;4236;54.504;9.588;2022-11-15T06:45:57;101001.44;;;5.58;100.00
8398;BME280;4236;54.504;9.588;2022-11-15T06:48:25;101002.44;;;5.65;100.00
8398;BME280;4236;54.504;9.588;2022-11-15T06:50:53;100997.66;;;5.69;100.00
8398;BME280;4236;54.504;9.588;2022-11-15T06:53:22;101000.66;;;5.74;100.00
8398;BME280;4236;54.504;9.588;2022-11-15T06:55:50;100999.22;;;5.79;100.00
8398;BME280;4236;54.504;9.588;2022-11-15T06:58:21;101004.00;;;5.84;100.00
8398;BME280;4236;54.504;9.588;2022-11-15T07:00:48;101002.56;;;5.89;100.00
8398;BME280;4236;54.504;9.588;2022-11-15T07:03:16;101004.59;;;5.95;100.00
8398;BME280;4236;54.504;9.588;2022-11-15T07:05:50;101007.25;;;6.03;100.00
8398;BME280;4236;54.504;9.588;2022-11-15T07:08:18;101006.59;;;6.09;100.00
8398;BME280;4236;54.504;9.588;2022-11-15T07:10:47;101007.13;;;6.13;100.00
8398;BME280;4236;54.504;9.588;2022-11-15T07:13:15;101013.75;;;6.17;100.00
8398;BME280;4236;54.504;9.588;2022-11-15T07:15:43;101016.41;;;6.25;100.00
8398;BME280;4236;54.504;9.588;2022-11-15T07:18:10;101016.59;;;6.32;100.00
8398;BME280;4236;54.504;9.588;2022-11-15T07:20:38;101015.78;;;6.39;100.00
8398;BME280;4236;54.504;9.588;2022-11-15T07:23:06;101008.84;;;6.46;100.00
8398;BME280;4236;54.504;9.588;2022-11-15T07:25:33;101019.44;;;6.54;100.00
8398;BME280;4236;54.504;9.588;2022-11-15T07:28:03;101006.38;;;6.61;100.00
8398;BME280;4236;54.504;9.588;2022-11-15T07:30:31;101004.56;;;6.69;100.00
8398;BME280;4236;54.504;9.588;2022-11-15T07:33:00;101002.72;;;6.78;100.00
8398;BME280;4236;54.504;9.588;2022-11-15T07:35:28;101001.41;;;6.82;100.00
8398;BME280;4236;54.504;9.588;2022-11-15T07:37:57;101006.91;;;6.89;100.00
8398;BME280;4236;54.504;9.588;2022-11-15T07:40:25;101008.69;;;6.96;100.00
8398;BME280;4236;54.504;9.588;2022-11-15T07:42:58;101012.19;;;6.97;100.00
8398;BME280;4236;54.504;9.588;2022-11-15T07:45:28;101011.00;;;6.99;100.00
8398;BME280;4236;54.504;9.588;2022-11-15T07:47:56;101018.81;;;7.01;100.00
8398;BME280;4236;54.504;9.588;2022-11-15T07:50:24;101027.94;;;7.06;100.00
8398;BME280;4236;54.504;9.588;2022-11-15T07:52:55;101021.63;;;7.07;100.00
8398;BME280;4236;54.504;9.588;2022-11-15T07:55:23;101028.91;;;7.05;100.00
8398;BME280;4236;54.504;9.588;2022-11-15T07:57:51;101027.75;;;7.08;100.00
8398;BME280;4236;54.504;9.588;2022-11-15T08:00:19;101022.94;;;7.11;100.00
8398;BME280;4236;54.504;9.588;2022-11-15T08:02:48;101030.06;;;7.11;100.00
8398;BME280;4236;54.504;9.588;2022-11-15T08:05:16;101028.94;;;7.13;100.00
8398;BME280;4236;54.504;9.588;2022-11-15T08:07:43;101028.09;;;7.13;100.00
8398;BME280;4236;54.504;9.588;2022-11-15T08:10:11;101029.75;;;7.22;100.00
8398;BME280;4236;54.504;9.588;2022-11-15T08:12:40;101030.22;;;7.17;100.00
8398;BME280;4236;54.504;9.588;2022-11-15T08:15:08;101027.09;;;7.22;100.00
8398;BME280;4236;54.504;9.588;2022-11-15T08:17:36;101035.53;;;7.26;100.00
8398;BME280;4236;54.504;9.588;2022-11-15T08:20:06;101034.38;;;7.20;100.00
8398;BME280;4236;54.504;9.588;2022-11-15T08:22:33;101030.22;;;7.17;100.00
8398;BME280;4236;54.504;9.588;2022-11-15T08:25:01;101027.44;;;7.19;100.00
8398;BME280;4236;54.504;9.588;2022-11-15T08:27:29;101034.22;;;7.21;100.00
8398;BME280;4236;54.504;9.588;2022-11-15T08:29:56;101042.81;;;7.23;100.00
8398;BME280;4236;54.504;9.588;2022-11-15T08:32:25;101044.16;;;7.28;100.00
8398;BME280;4236;54.504;9.588;2022-11-15T08:34:52;101037.03;;;7.28;100.00
8398;BME280;4236;54.504;9.588;2022-11-15T08:37:21;101041.00;;;7.32;100.00
8398;BME280;4236;54.504;9.588;2022-11-15T08:39:49;101041.78;;;7.41;100.00
8398;BME280;4236;54.504;9.588;2022-11-15T08:42:16;101042.28;;;7.44;100.00
8398;BME280;4236;54.504;9.588;2022-11-15T08:44:45;101032.34;;;7.46;100.00
8398;BME280;4236;54.504;9.588;2022-11-15T08:47:13;101029.22;;;7.43;100.00
8398;BME280;4236;54.504;9.588;2022-11-15T08:49:41;101031.56;;;7.38;100.00
8398;BME280;4236;54.504;9.588;2022-11-15T08:52:08;101042.81;;;7.40;100.00
8398;BME280;4236;54.504;9.588;2022-11-15T08:54:37;101039.16;;;7.41;100.00
8398;BME280;4236;54.504;9.588;2022-11-15T08:57:06;101039.97;;;7.41;100.00
8398;BME280;4236;54.504;9.588;2022-11-15T08:59:35;101042.47;;;7.43;100.00
8398;BME280;4236;54.504;9.588;2022-11-15T09:02:03;101038.97;;;7.50;100.00
8398;BME280;4236;54.504;9.588;2022-11-15T09:04:31;101052.38;;;7.57;100.00
8398;BME280;4236;54.504;9.588;2022-11-15T09:06:58;101048.56;;;7.67;100.00
8398;BME280;4236;54.504;9.588;2022-11-15T09:09:26;101041.75;;;7.73;100.00
8398;BME280;4236;54.504;9.588;2022-11-15T09:11:55;101045.53;;;7.78;100.00
8398;BME280;4236;54.504;9.588;2022-11-15T09:14:28;101049.47;;;7.82;100.00
8398;BME280;4236;54.504;9.588;2022-11-15T09:16:55;101049.63;;;7.89;100.00
8398;BME280;4236;54.504;9.588;2022-11-15T09:19:23;101058.75;;;7.95;100.00
8398;BME280;4236;54.504;9.588;2022-11-15T09:21:51;101058.88;;;8.01;100.00
8398;BME280;4236;54.504;9.588;2022-11-15T09:24:19;101062.66;;;8.07;100.00
8398;BME280;4236;54.504;9.588;2022-11-15T09:26:49;101056.22;;;8.09;100.00
8398;BME280;4236;54.504;9.588;2022-11-15T09:29:18;101053.56;;;8.01;100.00
8398;BME280;4236;54.504;9.588;2022-11-15T09:31:46;101060.38;;;8.04;100.00
8398;BME280;4236;54.504;9.588;2022-11-15T09:34:14;101050.22;;;8.07;100.00
8398;BME280;4236;54.504;9.588;2022-11-15T09:36:41;101055.19;;;8.10;100.00
8398;BME280;4236;54.504;9.588;2022-11-15T09:39:09;101056.03;;;8.11;100.00
8398;BME280;4236;54.504;9.588;2022-11-15T09:41:57;101052.38;;;8.12;100.00
8398;BME280;4236;54.504;9.588;2022-11-15T09:44:39;101049.19;;;8.16;100.00
8398;BME280;4236;54.504;9.588;2022-11-15T09:47:30;101047.53;;;8.15;100.00
8398;BME280;4236;54.504;9.588;2022-11-15T09:50:09;101050.53;;;8.12;100.00
8398;BME280;4236;54.504;9.588;2022-11-15T09:52:39;101047.53;;;8.15;100.00
8398;BME280;4236;54.504;9.588;2022-11-15T09:55:09;101046.66;;;8.23;100.00
8398;BME280;4236;54.504;9.588;2022-11-15T09:57:44;101043.84;;;8.32;100.00
8398;BME280;4236;54.504;9.588;2022-11-15T10:00:19;101039.09;;;8.43;100.00
8398;BME280;4236;54.504;9.588;2022-11-15T10:03:10;101037.69;;;8.55;100.00
8398;BME280;4236;54.504;9.588;2022-11-15T10:05:40;101032.88;;;8.58;100.00
8398;BME280;4236;54.504;9.588;2022-11-15T10:08:22;101036.84;;;8.62;100.00
8398;BME280;4236;54.504;9.588;2022-11-15T10:11:00;101025.66;;;8.67;100.00
8398;BME280;4236;54.504;9.588;2022-11-15T10:13:50;101030.94;;;8.75;100.00
8398;BME280;4236;54.504;9.588;2022-11-15T10:19:23;101005.94;;;8.84;100.00
8398;BME280;4236;54.504;9.588;2022-11-15T10:22:02;101009.41;;;8.84;100.00
8398;BME280;4236;54.504;9.588;2022-11-15T10:24:37;101008.06;;;8.88;100.00
8398;BME280;4236;54.504;9.588;2022-11-15T10:27:09;101006.22;;;8.89;100.00
8398;BME280;4236;54.504;9.588;2022-11-15T10:29:42;101008.22;;;8.87;100.00
8398;BME280;4236;54.504;9.588;2022-11-15T10:32:13;101008.88;;;8.89;100.00
8398;BME280;4236;54.504;9.588;2022-11-15T10:34:41;101007.22;;;8.88;100.00
8398;BME280;4236;54.504;9.588;2022-11-15T10:37:09;101004.19;;;8.91;100.00
8398;BME280;4236;54.504;9.588;2022-11-15T10:39:37;101007.34;;;8.95;100.00
8398;BME280;4236;54.504;9.588;2022-11-15T10:42:18;101013.50;;;8.95;100.00
8398;BME280;4236;54.504;9.588;2022-11-15T10:44:53;101010.34;;;8.92;100.00
8398;BME280;4236;54.504;9.588;2022-11-15T10:47:27;101004.13;;;8.99;100.00
8398;BME280;4236;54.504;9.588;2022-11-15T10:50:06;100995.41;;;9.05;100.00
8398;BME280;4236;54.504;9.588;2022-11-15T10:52:35;100999.38;;;9.09;100.00
8398;BME280;4236;54.504;9.588;2022-11-15T10:55:21;101009.31;;;9.15;100.00
8398;BME280;4236;54.504;9.588;2022-11-15T10:57:52;100998.13;;;9.20;100.00
8398;BME280;4236;54.504;9.588;2022-11-15T11:00:29;101005.47;;;9.32;100.00
8398;BME280;4236;54.504;9.588;2022-11-15T11:03:00;101000.34;;;9.31;100.00
8398;BME280;4236;54.504;9.588;2022-11-15T11:05:30;100995.75;;;9.39;100.00
8398;BME280;4236;54.504;9.588;2022-11-15T11:08:21;100991.72;;;9.43;100.00
8398;BME280;4236;54.504;9.588;2022-11-15T11:10:52;100989.50;;;9.47;100.00
8398;BME280;4236;54.504;9.588;2022-11-15T11:13:29;100986.94;;;9.54;100.00
8398;BME280;4236;54.504;9.588;2022-11-15T11:16:05;100982.66;;;9.53;100.00
8398;BME280;4236;54.504;9.588;2022-11-15T11:18:39;100988.59;;;9.55;100.00
8398;BME280;4236;54.504;9.588;2022-11-15T11:21:14;100984.47;;;9.52;100.00
8398;BME280;4236;54.504;9.588;2022-11-15T11:23:49;100985.31;;;9.53;100.00
8398;BME280;4236;54.504;9.588;2022-11-15T11:26:32;100991.28;;;9.55;100.00
8398;BME280;4236;54.504;9.588;2022-11-15T11:29:14;100988.25;;;9.58;100.00
8398;BME280;4236;54.504;9.588;2022-11-15T11:31:52;100982.72;;;9.59;100.00
8398;BME280;4236;54.504;9.588;2022-11-15T11:34:34;100977.38;;;9.59;100.00
8398;BME280;4236;54.504;9.588;2022-11-15T11:37:07;100974.00;;;9.65;100.00
8398;BME280;4236;54.504;9.588;2022-11-15T11:39:43;100964.44;;;9.71;100.00
8398;BME280;4236;54.504;9.588;2022-11-15T11:42:19;100961.13;;;9.69;100.00
8398;BME280;4236;54.504;9.588;2022-11-15T11:45:00;100961.13;;;9.69;100.00
8398;BME280;4236;54.504;9.588;2022-11-15T11:47:38;100949.66;;;9.68;100.00
8398;BME280;4236;54.504;9.588;2022-11-15T11:50:14;100960.50;;;9.67;100.00
8398;BME280;4236;54.504;9.588;2022-11-15T11:52:48;100961.88;;;9.63;100.00
8398;BME280;4236;54.504;9.588;2022-11-15T11:55:31;100962.25;;;9.60;100.00
8398;BME280;4236;54.504;9.588;2022-11-15T11:58:06;100962.25;;;9.60;100.00
8398;BME280;4236;54.504;9.588;2022-11-15T12:00:40;100964.66;;;9.55;100.00
8398;BME280;4236;54.504;9.588;2022-11-15T12:03:12;100962.16;;;9.53;100.00
8398;BME280;4236;54.504;9.588;2022-11-15T12:05:45;100971.63;;;9.56;100.00
8398;BME280;4236;54.504;9.588;2022-11-15T12:08:24;100965.09;;;9.58;100.00
8398;BME280;4236;54.504;9.588;2022-11-15T12:11:00;100964.28;;;9.58;100.00
8398;BME280;4236;54.504;9.588;2022-11-15T12:13:31;100955.66;;;9.56;100.00
8398;BME280;4236;54.504;9.588;2022-11-15T12:16:07;100956.66;;;9.55;100.00
8398;BME280;4236;54.504;9.588;2022-11-15T12:18:37;100941.88;;;9.52;100.00
8398;BME280;4236;54.504;9.588;2022-11-15T12:21:13;100941.88;;;9.52;100.00
8398;BME280;4236;54.504;9.588;2022-11-15T12:23:44;100934.72;;;9.53;100.00
8398;BME280;4236;54.504;9.588;2022-11-15T12:26:17;100932.88;;;9.53;100.00
8398;BME280;4236;54.504;9.588;2022-11-15T12:28:49;100941.31;;;9.57;100.00
8398;BME280;4236;54.504;9.588;2022-11-15T12:31:37;100932.31;;;9.58;100.00
8398;BME280;4236;54.504;9.588;2022-11-15T12:34:15;100929.19;;;9.54;100.00
8398;BME280;4236;54.504;9.588;2022-11-15T12:36:57;100916.88;;;9.53;100.00
8398;BME280;4236;54.504;9.588;2022-11-15T12:42:40;100918.47;;;9.48;100.00
8398;BME280;4236;54.504;9.588;2022-11-15T12:45:25;100902.31;;;9.49;100.00
8398;BME280;4236;54.504;9.588;2022-11-15T12:47:52;100908.91;;;9.53;100.00
8398;BME280;4236;54.504;9.588;2022-11-15T12:50:53;100906.25;;;9.53;100.00
8398;BME280;4236;54.504;9.588;2022-11-15T12:53:27;100896.06;;;9.42;100.00
8398;BME280;4236;54.504;9.588;2022-11-15T12:56:15;100901.41;;;9.42;100.00
8398;BME280;4236;54.504;9.588;2022-11-15T12:58:47;100899.56;;;9.42;100.00
8398;BME280;4236;54.504;9.588;2022-11-15T13:04:24;100893.25;;;9.43;100.00
8398;BME280;4236;54.504;9.588;2022-11-15T13:06:53;100895.91;;;9.43;100.00
8398;BME280;4236;54.504;9.588;2022-11-15T13:09:54;100897.00;;;9.49;100.00
8398;BME280;4236;54.504;9.588;2022-11-15T13:12:53;100892.69;;;9.48;100.00
8398;BME280;4236;54.504;9.588;2022-11-15T13:15:37;100898.00;;;9.48;100.00
8398;BME280;4236;54.504;9.588;2022-11-15T13:18:41;100896.34;;;9.47;100.00
8398;BME280;4236;54.504;9.588;2022-11-15T13:21:20;100902.13;;;9.51;100.00
8398;BME280;4236;54.504;9.588;2022-11-15T13:24:15;100899.09;;;9.54;100.00
8398;BME280;4236;54.504;9.588;2022-11-15T13:26:45;100880.66;;;9.52;100.00
8398;BME280;4236;54.504;9.588;2022-11-15T13:29:16;100873.13;;;9.56;100.00
8398;BME280;4236;54.504;9.588;2022-11-15T13:31:45;100879.25;;;9.56;100.00
8398;BME280;4236;54.504;9.588;2022-11-15T13:34:29;100887.16;;;9.64;100.00
8398;BME280;4236;54.504;9.588;2022-11-15T13:37:29;100886.19;;;9.72;100.00
8398;BME280;4236;54.504;9.588;2022-11-15T13:40:15;100885.44;;;9.78;100.00
8398;BME280;4236;54.504;9.588;2022-11-15T13:42:47;100879.03;;;9.72;100.00
8398;BME280;4236;54.504;9.588;2022-11-15T13:45:16;100879.88;;;9.73;100.00